createdAt,value
2023-03-12T00:00:48.724Z,-0.55
2023-03-12T00:01:40.421Z,-0.55
2023-03-12T00:02:31.920Z,-0.54
2023-03-12T00:03:23.511Z,-0.55
2023-03-12T00:04:15.007Z,-0.54
2023-03-12T00:05:07.025Z,-0.54
2023-03-12T00:06:06.092Z,-0.52
2023-03-12T00:07:02.191Z,-0.50
2023-03-12T00:07:54.080Z,-0.49
2023-03-12T00:08:46.345Z,-0.48
2023-03-12T00:09:39.650Z,-0.47
2023-03-12T00:10:31.376Z,-0.47
2023-03-12T00:11:23.070Z,-0.46
2023-03-12T00:12:14.571Z,-0.46
2023-03-12T00:13:07.131Z,-0.43
2023-03-12T00:14:00.133Z,-0.43
2023-03-12T00:14:51.652Z,-0.42
2023-03-12T00:15:43.174Z,-0.39
2023-03-12T00:16:34.768Z,-0.39
2023-03-12T00:17:26.304Z,-0.39
2023-03-12T00:18:18.004Z,-0.37
2023-03-12T00:19:12.705Z,-0.37
2023-03-12T00:20:07.016Z,-0.35
2023-03-12T00:20:58.623Z,-0.36
2023-03-12T00:21:50.219Z,-0.31
2023-03-12T00:22:41.777Z,-0.31
2023-03-12T00:23:33.754Z,-0.29
2023-03-12T00:24:25.229Z,-0.28
2023-03-12T00:25:17.585Z,-0.26
2023-03-12T00:26:11.935Z,-0.25
2023-03-12T00:27:03.544Z,-0.27
2023-03-12T00:27:55.047Z,-0.28
2023-03-12T00:28:49.726Z,-0.27
2023-03-12T00:29:41.236Z,-0.26
2023-03-12T00:30:32.714Z,-0.25
2023-03-12T00:31:28.655Z,-0.25
2023-03-12T00:32:21.362Z,-0.24
2023-03-12T00:33:13.102Z,-0.26
2023-03-12T00:34:04.656Z,-0.23
2023-03-12T00:34:56.416Z,-0.23
2023-03-12T00:35:47.966Z,-0.22
2023-03-12T00:36:41.203Z,-0.22
2023-03-12T00:37:35.557Z,-0.24
2023-03-12T00:38:27.150Z,-0.26
2023-03-12T00:39:18.722Z,-0.25
2023-03-12T00:40:11.335Z,-0.22
2023-03-12T00:41:03.058Z,-0.22
2023-03-12T00:41:54.592Z,-0.21
2023-03-12T00:42:46.092Z,-0.20
2023-03-12T00:43:38.588Z,-0.18
2023-03-12T00:44:30.193Z,-0.16
2023-03-12T00:45:21.678Z,-0.15
2023-03-12T00:46:13.536Z,-0.14
2023-03-12T00:47:05.594Z,-0.12
2023-03-12T00:47:57.209Z,-0.11
2023-03-12T00:48:48.878Z,-0.09
2023-03-12T00:49:40.750Z,-0.07
2023-03-12T00:50:32.378Z,-0.06
2023-03-12T00:51:23.976Z,-0.04
2023-03-12T00:52:15.576Z,-0.05
2023-03-12T00:53:07.090Z,-0.03
2023-03-12T00:53:58.612Z,-0.04
2023-03-12T00:54:50.087Z,-0.05
2023-03-12T00:55:41.583Z,-0.05
2023-03-12T00:56:33.295Z,-0.05
2023-03-12T00:57:25.037Z,-0.02
2023-03-12T00:58:16.736Z,-0.01
2023-03-12T00:59:08.308Z,-0.01
2023-03-12T00:59:59.843Z,-0.01
2023-03-12T01:00:51.594Z,-0.02
2023-03-12T01:01:44.747Z,-0.04
2023-03-12T01:02:37.995Z,-0.06
2023-03-12T01:03:29.682Z,-0.05
2023-03-12T01:04:21.498Z,-0.04
2023-03-12T01:05:14.434Z,-0.06
2023-03-12T01:06:07.875Z,-0.02
2023-03-12T01:06:59.432Z,0.00
2023-03-12T01:07:51.116Z,0.01
2023-03-12T01:08:42.691Z,0.03
2023-03-12T01:09:34.255Z,0.02
2023-03-12T01:10:25.763Z,0.04
2023-03-12T01:11:20.105Z,0.04
2023-03-12T01:12:11.589Z,0.05
2023-03-12T01:13:03.516Z,0.06
2023-03-12T01:13:55.326Z,0.06
2023-03-12T01:14:46.915Z,0.09
2023-03-12T01:15:38.752Z,0.10
2023-03-12T01:16:30.687Z,0.11
2023-03-12T01:17:22.428Z,0.11
2023-03-12T01:18:14.368Z,0.11
2023-03-12T01:19:05.903Z,0.10
2023-03-12T01:19:57.434Z,0.12
2023-03-12T01:20:49.620Z,0.12
2023-03-12T01:21:41.407Z,0.11
2023-03-12T01:22:32.958Z,0.11
2023-03-12T01:23:24.709Z,0.11
2023-03-12T01:24:16.287Z,0.13
2023-03-12T01:25:09.540Z,0.11
2023-03-12T01:26:01.066Z,0.10
2023-03-12T01:26:52.661Z,0.13
2023-03-12T01:27:44.278Z,0.11
2023-03-12T01:28:35.792Z,0.12
2023-03-12T01:29:27.338Z,0.10
2023-03-12T01:30:18.898Z,0.08
2023-03-12T01:31:15.010Z,0.07
2023-03-12T01:32:06.809Z,0.07
2023-03-12T01:32:58.781Z,0.07
2023-03-12T01:33:52.474Z,0.07
2023-03-12T01:34:44.984Z,0.08
2023-03-12T01:35:41.238Z,0.08
2023-03-12T01:36:32.919Z,0.08
2023-03-12T01:37:24.789Z,0.07
2023-03-12T01:38:16.397Z,0.05
2023-03-12T01:39:07.935Z,0.05
2023-03-12T01:40:00.143Z,0.04
2023-03-12T01:40:51.796Z,0.04
2023-03-12T01:41:43.414Z,0.04
2023-03-12T01:42:34.931Z,0.05
2023-03-12T01:43:35.369Z,0.04
2023-03-12T01:44:28.658Z,0.05
2023-03-12T01:45:51.068Z,0.10
2023-03-12T01:46:44.440Z,0.09
2023-03-12T01:47:39.091Z,0.10
2023-03-12T01:48:41.673Z,0.09
2023-03-12T01:49:34.876Z,0.11
2023-03-12T01:50:27.046Z,0.11
2023-03-12T01:51:21.048Z,0.09
2023-03-12T01:52:16.920Z,0.08
2023-03-12T01:53:13.026Z,0.07
2023-03-12T01:54:10.952Z,0.09
2023-03-12T01:55:16.078Z,0.10
2023-03-12T01:56:12.130Z,0.11
2023-03-12T01:57:09.848Z,0.11
2023-03-12T01:58:02.335Z,0.12
2023-03-12T01:58:58.653Z,0.10
2023-03-12T01:59:56.483Z,0.05
2023-03-12T02:00:48.373Z,0.03
2023-03-12T02:01:43.256Z,0.01
2023-03-12T02:02:36.625Z,-0.04
2023-03-12T02:03:30.211Z,-0.07
2023-03-12T02:04:25.775Z,-0.09
2023-03-12T02:05:23.362Z,-0.11
2023-03-12T02:06:16.048Z,-0.13
2023-03-12T02:07:14.724Z,-0.14
2023-03-12T02:08:06.451Z,-0.16
2023-03-12T02:09:01.651Z,-0.17
2023-03-12T02:09:53.492Z,-0.17
2023-03-12T02:10:46.097Z,-0.17
2023-03-12T02:11:38.704Z,-0.14
2023-03-12T02:12:30.680Z,-0.13
2023-03-12T02:13:22.574Z,-0.13
2023-03-12T02:14:14.482Z,-0.12
2023-03-12T02:15:06.825Z,-0.11
2023-03-12T02:15:58.700Z,-0.09
2023-03-12T02:16:51.975Z,-0.06
2023-03-12T02:17:44.097Z,-0.01
2023-03-12T02:18:36.258Z,0.03
2023-03-12T02:19:36.610Z,0.07
2023-03-12T02:20:47.094Z,0.10
2023-03-12T02:21:39.526Z,0.10
2023-03-12T02:22:31.674Z,0.13
2023-03-12T02:23:31.987Z,0.17
2023-03-12T02:25:03.844Z,0.20
2023-03-12T02:25:57.356Z,0.22
2023-03-12T02:26:49.744Z,0.22
2023-03-12T02:27:42.426Z,0.21
2023-03-12T02:28:42.597Z,0.19
2023-03-12T02:29:38.553Z,0.20
2023-03-12T02:30:33.325Z,0.20
2023-03-12T02:31:35.049Z,0.23
2023-03-12T02:32:33.623Z,0.23
2023-03-12T02:33:26.111Z,0.23
2023-03-12T02:34:17.651Z,0.23
2023-03-12T02:35:09.771Z,0.24
2023-03-12T02:36:01.370Z,0.27
2023-03-12T02:36:53.952Z,0.31
2023-03-12T02:37:55.410Z,0.30
2023-03-12T02:38:49.797Z,0.31
2023-03-12T02:39:43.374Z,0.32
2023-03-12T02:40:42.087Z,0.34
2023-03-12T02:41:41.439Z,0.36
2023-03-12T02:42:34.004Z,0.34
2023-03-12T02:43:25.789Z,0.35
2023-03-12T02:44:22.211Z,0.38
2023-03-12T02:45:15.842Z,0.43
2023-03-12T02:46:08.521Z,0.51
2023-03-12T02:47:01.637Z,0.51
2023-03-12T02:47:53.422Z,0.53
2023-03-12T02:48:44.926Z,0.53
2023-03-12T02:49:36.466Z,0.53
2023-03-12T02:50:28.184Z,0.53
2023-03-12T02:51:19.761Z,0.51
2023-03-12T02:52:11.271Z,0.49
2023-03-12T02:53:03.362Z,0.49
2023-03-12T02:53:55.056Z,0.49
2023-03-12T02:54:47.372Z,0.48
2023-03-12T02:55:39.012Z,0.49
2023-03-12T02:56:30.710Z,0.49
2023-03-12T02:57:22.813Z,0.50
2023-03-12T02:58:14.386Z,0.58
2023-03-12T02:59:06.821Z,0.56
2023-03-12T03:00:01.886Z,0.55
2023-03-12T03:00:55.602Z,0.54
2023-03-12T03:01:51.569Z,0.54
2023-03-12T03:02:43.185Z,0.54
2023-03-12T03:03:34.711Z,0.53
2023-03-12T03:04:27.892Z,0.54
2023-03-12T03:05:20.392Z,0.55
2023-03-12T03:06:13.139Z,0.55
2023-03-12T03:07:04.966Z,0.57
2023-03-12T03:07:56.522Z,0.58
2023-03-12T03:08:48.156Z,0.60
2023-03-12T03:09:39.657Z,0.60
2023-03-12T03:10:31.784Z,0.60
2023-03-12T03:11:24.646Z,0.61
2023-03-12T03:12:18.439Z,0.61
2023-03-12T03:13:10.060Z,0.59
2023-03-12T03:14:03.880Z,0.58
2023-03-12T03:14:55.541Z,0.60
2023-03-12T03:15:47.128Z,0.60
2023-03-12T03:16:38.797Z,0.58
2023-03-12T03:17:30.309Z,0.57
2023-03-12T03:18:21.983Z,0.53
2023-03-12T03:19:13.751Z,0.54
2023-03-12T03:20:10.938Z,0.55
2023-03-12T03:21:06.257Z,0.55
2023-03-12T03:21:58.867Z,0.54
2023-03-12T03:22:50.332Z,0.53
2023-03-12T03:23:43.297Z,0.54
2023-03-12T03:24:36.125Z,0.54
2023-03-12T03:25:27.709Z,0.52
2023-03-12T03:26:21.551Z,0.54
2023-03-12T03:27:14.837Z,0.55
2023-03-12T03:28:06.512Z,0.55
2023-03-12T03:28:58.204Z,0.53
2023-03-12T03:29:52.653Z,0.54
2023-03-12T03:30:44.242Z,0.54
2023-03-12T03:31:35.978Z,0.54
2023-03-12T03:32:28.355Z,0.57
2023-03-12T03:33:20.529Z,0.55
2023-03-12T03:34:12.559Z,0.56
2023-03-12T03:35:04.359Z,0.58
2023-03-12T03:35:59.446Z,0.60
2023-03-12T03:36:52.284Z,0.60
2023-03-12T03:37:44.302Z,0.60
2023-03-12T03:38:36.708Z,0.60
2023-03-12T03:39:29.446Z,0.60
2023-03-12T03:40:21.188Z,0.60
2023-03-12T03:41:12.763Z,0.61
2023-03-12T03:42:08.445Z,0.62
2023-03-12T03:43:00.232Z,0.69
2023-03-12T03:43:51.891Z,0.71
2023-03-12T03:44:45.015Z,0.76
2023-03-12T03:45:36.751Z,0.74
2023-03-12T03:46:28.306Z,0.72
2023-03-12T03:47:25.452Z,0.71
2023-03-12T03:48:16.945Z,0.71
2023-03-12T03:49:08.487Z,0.69
2023-03-12T03:50:01.819Z,0.69
2023-03-12T03:50:53.551Z,0.71
2023-03-12T03:51:45.110Z,0.70
2023-03-12T03:52:40.687Z,0.69
2023-03-12T03:53:32.840Z,0.69
2023-03-12T03:54:24.426Z,0.69
2023-03-12T03:55:16.055Z,0.69
2023-03-12T03:56:13.668Z,0.70
2023-03-12T03:57:09.264Z,0.70
2023-03-12T03:58:00.931Z,0.69
2023-03-12T03:58:52.721Z,0.73
2023-03-12T03:59:45.829Z,0.73
2023-03-12T04:00:37.629Z,0.72
2023-03-12T04:01:29.545Z,0.75
2023-03-12T04:02:21.681Z,0.75
2023-03-12T04:03:14.150Z,0.77
2023-03-12T04:04:05.972Z,0.79
2023-03-12T04:04:59.141Z,0.79
2023-03-12T04:06:00.859Z,0.81
2023-03-12T04:06:53.129Z,0.82
2023-03-12T04:07:45.176Z,0.80
2023-03-12T04:08:38.283Z,0.79
2023-03-12T04:09:33.200Z,0.79
2023-03-12T04:10:24.972Z,0.78
2023-03-12T04:11:20.731Z,0.77
2023-03-12T04:12:12.758Z,0.80
2023-03-12T04:13:05.897Z,0.87
2023-03-12T04:13:58.377Z,0.85
2023-03-12T04:14:53.206Z,0.85
2023-03-12T04:15:53.493Z,0.93
2023-03-12T04:16:45.365Z,0.93
2023-03-12T04:17:37.115Z,0.92
2023-03-12T04:18:29.074Z,0.90
2023-03-12T04:19:20.899Z,0.89
2023-03-12T04:20:12.806Z,0.89
2023-03-12T04:21:08.250Z,0.86
2023-03-12T04:22:01.030Z,0.87
2023-03-12T04:22:52.628Z,0.88
2023-03-12T04:23:44.155Z,0.89
2023-03-12T04:24:37.657Z,0.88
2023-03-12T04:25:29.368Z,0.86
2023-03-12T04:26:20.878Z,0.88
2023-03-12T04:27:12.482Z,0.88
2023-03-12T04:28:05.982Z,0.88
2023-03-12T04:29:00.686Z,0.89
2023-03-12T04:29:52.334Z,0.89
2023-03-12T04:30:44.096Z,0.94
2023-03-12T04:31:35.643Z,0.92
2023-03-12T04:32:27.305Z,0.91
2023-03-12T04:33:18.803Z,0.93
2023-03-12T04:34:12.609Z,0.92
2023-03-12T04:35:05.930Z,0.94
2023-03-12T04:35:58.366Z,0.95
2023-03-12T04:36:50.323Z,0.94
2023-03-12T04:37:41.806Z,1.00
2023-03-12T04:38:34.503Z,1.02
2023-03-12T04:39:26.222Z,1.01
2023-03-12T04:40:19.241Z,1.01
2023-03-12T04:41:13.978Z,0.99
2023-03-12T04:42:11.847Z,0.97
2023-03-12T04:43:05.431Z,0.96
2023-03-12T04:43:56.937Z,0.97
2023-03-12T04:44:52.375Z,0.98
2023-03-12T04:45:44.012Z,1.00
2023-03-12T04:46:35.614Z,1.02
2023-03-12T04:47:27.196Z,1.01
2023-03-12T04:48:18.841Z,1.04
2023-03-12T04:49:11.334Z,1.09
2023-03-12T04:50:05.067Z,1.09
2023-03-12T04:50:57.015Z,1.08
2023-03-12T04:51:48.699Z,1.09
2023-03-12T04:52:40.391Z,1.11
2023-03-12T04:53:32.833Z,1.10
2023-03-12T04:54:24.536Z,1.12
2023-03-12T04:55:16.891Z,1.15
2023-03-12T04:56:08.571Z,1.15
2023-03-12T04:57:00.365Z,1.15
2023-03-12T04:57:51.996Z,1.15
2023-03-12T04:58:43.675Z,1.15
2023-03-12T04:59:35.777Z,1.16
2023-03-12T05:00:27.524Z,1.21
2023-03-12T05:01:31.946Z,1.20
2023-03-12T05:02:24.196Z,1.19
2023-03-12T05:03:16.714Z,1.16
2023-03-12T05:04:09.956Z,1.19
2023-03-12T05:05:01.851Z,1.20
2023-03-12T05:05:53.404Z,1.16
2023-03-12T05:06:45.036Z,1.16
2023-03-12T05:07:36.513Z,1.21
2023-03-12T05:08:27.990Z,1.16
2023-03-12T05:09:19.645Z,1.16
2023-03-12T05:10:11.476Z,1.16
2023-03-12T05:11:03.504Z,1.15
2023-03-12T05:11:55.135Z,1.13
2023-03-12T05:12:47.384Z,1.14
2023-03-12T05:13:38.893Z,1.18
2023-03-12T05:14:30.450Z,1.13
2023-03-12T05:15:22.862Z,1.07
2023-03-12T05:16:15.755Z,1.01
2023-03-12T05:17:07.483Z,1.03
2023-03-12T05:17:59.725Z,1.01
2023-03-12T05:18:51.368Z,0.98
2023-03-12T05:19:43.179Z,0.94
2023-03-12T05:20:34.723Z,0.91
2023-03-12T05:21:26.269Z,0.81
2023-03-12T05:22:19.922Z,0.78
2023-03-12T05:23:11.609Z,0.79
2023-03-12T05:24:03.429Z,0.81
2023-03-12T05:24:55.229Z,0.81
2023-03-12T05:25:46.802Z,0.77
2023-03-12T05:26:38.420Z,0.75
2023-03-12T05:27:39.931Z,0.76
2023-03-12T05:28:31.565Z,0.75
2023-03-12T05:29:26.368Z,0.72
2023-03-12T05:30:19.217Z,0.70
2023-03-12T05:31:12.823Z,0.72
2023-03-12T05:32:05.300Z,0.71
2023-03-12T05:32:57.148Z,0.71
2023-03-12T05:33:51.636Z,0.71
2023-03-12T05:34:44.297Z,0.72
2023-03-12T05:35:35.923Z,0.72
2023-03-12T05:36:27.773Z,0.79
2023-03-12T05:37:19.358Z,0.76
2023-03-12T05:38:13.660Z,0.72
2023-03-12T05:39:05.383Z,0.71
2023-03-12T05:39:58.250Z,0.71
2023-03-12T05:40:55.723Z,0.71
2023-03-12T05:41:47.769Z,0.71
2023-03-12T05:42:42.786Z,0.72
2023-03-12T05:43:34.524Z,0.73
2023-03-12T05:44:27.095Z,0.74
2023-03-12T05:45:20.063Z,0.73
2023-03-12T05:46:15.849Z,0.75
2023-03-12T05:47:08.857Z,0.72
2023-03-12T05:48:00.365Z,0.75
2023-03-12T05:48:53.675Z,0.71
2023-03-12T05:49:45.575Z,0.72
2023-03-12T05:50:37.147Z,0.71
2023-03-12T05:51:28.761Z,0.72
2023-03-12T05:52:20.386Z,0.75
2023-03-12T05:53:12.404Z,0.74
2023-03-12T05:54:04.482Z,0.74
2023-03-12T05:54:56.114Z,0.74
2023-03-12T05:55:47.822Z,0.76
2023-03-12T05:56:40.079Z,0.80
2023-03-12T05:57:32.341Z,0.75
2023-03-12T05:58:25.295Z,0.77
2023-03-12T05:59:17.169Z,0.70
2023-03-12T06:00:09.849Z,0.66
2023-03-12T06:01:22.391Z,0.66
2023-03-12T06:02:14.061Z,0.67
2023-03-12T06:03:05.758Z,0.68
2023-03-12T06:03:58.261Z,0.70
2023-03-12T06:04:50.687Z,0.71
2023-03-12T06:05:45.298Z,0.72
2023-03-12T06:06:38.280Z,0.74
2023-03-12T06:07:30.117Z,0.77
2023-03-12T06:08:22.654Z,0.76
2023-03-12T06:09:14.643Z,0.81
2023-03-12T06:10:07.455Z,0.77
2023-03-12T06:10:59.405Z,0.83
2023-03-12T06:11:51.069Z,0.86
2023-03-12T06:12:43.407Z,0.84
2023-03-12T06:13:35.117Z,0.86
2023-03-12T06:14:26.874Z,0.84
2023-03-12T06:15:19.505Z,0.82
2023-03-12T06:16:18.444Z,0.83
2023-03-12T06:17:10.129Z,0.83
2023-03-12T06:18:01.841Z,0.83
2023-03-12T06:18:58.725Z,0.87
2023-03-12T06:19:52.769Z,0.94
2023-03-12T06:20:45.460Z,0.94
2023-03-12T06:21:36.948Z,0.91
2023-03-12T06:22:31.198Z,0.95
2023-03-12T06:23:22.716Z,0.96
2023-03-12T06:24:14.320Z,0.94
2023-03-12T06:25:12.920Z,0.93
2023-03-12T06:26:06.842Z,0.93
2023-03-12T06:26:59.236Z,0.94
2023-03-12T06:27:50.747Z,0.94
2023-03-12T06:28:43.056Z,0.96
2023-03-12T06:29:34.562Z,0.95
2023-03-12T06:30:27.550Z,0.97
2023-03-12T06:31:20.560Z,0.98
2023-03-12T06:32:12.162Z,1.05
2023-03-12T06:33:04.685Z,1.10
2023-03-12T06:33:56.262Z,1.12
2023-03-12T06:34:47.779Z,1.12
2023-03-12T06:35:39.326Z,1.14
2023-03-12T06:36:30.961Z,1.13
2023-03-12T06:37:22.518Z,1.11
2023-03-12T06:38:14.316Z,1.15
2023-03-12T06:39:09.668Z,1.17
2023-03-12T06:40:01.172Z,1.14
2023-03-12T06:41:02.850Z,1.16
2023-03-12T06:41:54.431Z,1.15
2023-03-12T06:42:45.977Z,1.16
2023-03-12T06:43:38.440Z,1.25
2023-03-12T06:44:30.065Z,1.26
2023-03-12T06:45:21.637Z,1.24
2023-03-12T06:46:16.913Z,1.25
2023-03-12T06:47:08.537Z,1.27
2023-03-12T06:47:59.980Z,1.29
2023-03-12T06:48:51.520Z,1.30
2023-03-12T06:49:43.189Z,1.35
2023-03-12T06:50:34.694Z,1.40
2023-03-12T06:51:26.174Z,1.43
2023-03-12T06:52:17.666Z,1.52
2023-03-12T06:53:09.309Z,1.52
2023-03-12T06:54:02.452Z,1.51
2023-03-12T06:54:54.028Z,1.52
2023-03-12T06:55:46.964Z,1.54
2023-03-12T06:56:38.479Z,1.57
2023-03-12T06:57:30.029Z,1.56
2023-03-12T06:58:21.510Z,1.59
2023-03-12T06:59:12.999Z,1.63
2023-03-12T07:00:05.451Z,1.71
2023-03-12T07:00:57.473Z,1.71
2023-03-12T07:01:49.560Z,1.69
2023-03-12T07:02:41.093Z,1.65
2023-03-12T07:03:32.779Z,1.65
2023-03-12T07:04:24.265Z,1.63
2023-03-12T07:05:16.022Z,1.59
2023-03-12T07:06:14.833Z,1.57
2023-03-12T07:07:08.504Z,1.53
2023-03-12T07:08:00.181Z,1.52
2023-03-12T07:08:52.733Z,1.51
2023-03-12T07:09:44.239Z,1.51
2023-03-12T07:10:35.706Z,1.52
2023-03-12T07:11:27.255Z,1.52
2023-03-12T07:12:18.899Z,1.58
2023-03-12T07:13:10.664Z,1.51
2023-03-12T07:14:02.225Z,1.52
2023-03-12T07:14:53.816Z,1.50
2023-03-12T07:15:46.468Z,1.53
2023-03-12T07:16:38.253Z,1.51
2023-03-12T07:17:29.769Z,1.51
2023-03-12T07:18:21.270Z,1.56
2023-03-12T07:19:13.156Z,1.59
2023-03-12T07:20:05.700Z,1.62
2023-03-12T07:20:57.181Z,1.63
2023-03-12T07:21:48.649Z,1.69
2023-03-12T07:22:40.498Z,1.66
2023-03-12T07:23:32.084Z,1.70
2023-03-12T07:24:23.711Z,1.71
2023-03-12T07:25:17.248Z,1.70
2023-03-12T07:26:09.420Z,1.68
2023-03-12T07:27:01.746Z,1.68
2023-03-12T07:27:53.230Z,1.74
2023-03-12T07:28:45.205Z,1.80
2023-03-12T07:29:36.678Z,1.77
2023-03-12T07:30:28.225Z,1.79
2023-03-12T07:31:19.711Z,1.78
2023-03-12T07:32:11.592Z,1.86
2023-03-12T07:33:08.941Z,1.84
2023-03-12T07:34:02.892Z,1.88
2023-03-12T07:34:54.462Z,1.88
2023-03-12T07:35:50.089Z,1.96
2023-03-12T07:36:43.237Z,1.99
2023-03-12T07:37:34.862Z,2.01
2023-03-12T07:38:27.156Z,2.01
2023-03-12T07:39:19.369Z,2.04
2023-03-12T07:40:11.483Z,2.05
2023-03-12T07:41:03.075Z,2.01
2023-03-12T07:41:54.745Z,1.98
2023-03-12T07:42:46.890Z,1.95
2023-03-12T07:43:38.504Z,1.96
2023-03-12T07:44:30.128Z,2.00
2023-03-12T07:45:22.346Z,1.94
2023-03-12T07:46:14.072Z,1.94
2023-03-12T07:47:22.385Z,1.95
2023-03-12T07:48:15.099Z,1.97
2023-03-12T07:49:06.600Z,1.99
2023-03-12T07:49:58.253Z,2.03
2023-03-12T07:50:49.956Z,2.05
2023-03-12T07:51:41.453Z,2.05
2023-03-12T07:52:33.318Z,2.03
2023-03-12T07:53:24.899Z,1.99
2023-03-12T07:54:16.445Z,1.98
2023-03-12T07:55:09.190Z,1.99
2023-03-12T07:56:00.895Z,2.02
2023-03-12T07:56:52.541Z,2.07
2023-03-12T07:57:44.563Z,2.12
2023-03-12T07:58:44.382Z,2.12
2023-03-12T07:59:35.948Z,2.11
2023-03-12T08:00:27.999Z,2.12
2023-03-12T08:01:19.549Z,2.15
2023-03-12T08:02:11.096Z,2.14
2023-03-12T08:03:02.942Z,2.16
2023-03-12T08:03:54.682Z,2.16
2023-03-12T08:04:46.863Z,2.14
2023-03-12T08:05:38.602Z,2.17
2023-03-12T08:06:30.200Z,2.21
2023-03-12T08:07:21.725Z,2.31
2023-03-12T08:08:13.300Z,2.30
2023-03-12T08:09:04.864Z,2.29
2023-03-12T08:09:56.454Z,2.31
2023-03-12T08:10:47.989Z,2.34
2023-03-12T08:11:39.538Z,2.36
2023-03-12T08:12:31.098Z,2.44
2023-03-12T08:13:24.324Z,2.43
2023-03-12T08:14:15.880Z,2.47
2023-03-12T08:15:08.881Z,2.45
2023-03-12T08:16:00.458Z,2.43
2023-03-12T08:16:52.316Z,2.42
2023-03-12T08:17:44.578Z,2.41
2023-03-12T08:18:36.303Z,2.38
2023-03-12T08:19:28.311Z,2.36
2023-03-12T08:20:19.974Z,2.38
2023-03-12T08:21:11.629Z,2.39
2023-03-12T08:22:03.104Z,2.40
2023-03-12T08:22:54.641Z,2.42
2023-03-12T08:23:46.443Z,2.45
2023-03-12T08:24:37.961Z,2.51
2023-03-12T08:25:29.906Z,2.50
2023-03-12T08:26:21.530Z,2.53
2023-03-12T08:27:14.094Z,2.56
2023-03-12T08:28:05.989Z,2.57
2023-03-12T08:28:57.621Z,2.58
2023-03-12T08:29:49.164Z,2.67
2023-03-12T08:30:46.286Z,2.66
2023-03-12T08:31:38.291Z,2.66
2023-03-12T08:32:29.868Z,2.67
2023-03-12T08:33:22.303Z,2.72
2023-03-12T08:34:14.082Z,2.79
2023-03-12T08:35:05.952Z,2.79
2023-03-12T08:35:57.577Z,2.79
2023-03-12T08:36:49.037Z,2.82
2023-03-12T08:37:41.484Z,2.85
2023-03-12T08:38:32.926Z,2.82
2023-03-12T08:39:24.408Z,2.85
2023-03-12T08:40:16.333Z,2.84
2023-03-12T08:41:07.869Z,2.84
2023-03-12T08:41:59.418Z,2.84
2023-03-12T08:42:51.055Z,2.83
2023-03-12T08:43:42.547Z,2.81
2023-03-12T08:44:34.028Z,2.82
2023-03-12T08:45:25.501Z,2.85
2023-03-12T08:46:17.172Z,2.87
2023-03-12T08:47:08.658Z,2.88
2023-03-12T08:48:00.113Z,2.83
2023-03-12T08:48:51.658Z,2.88
2023-03-12T08:49:43.188Z,2.91
2023-03-12T08:50:34.690Z,2.92
2023-03-12T08:51:26.317Z,2.95
2023-03-12T08:52:17.790Z,2.98
2023-03-12T08:53:09.314Z,3.03
2023-03-12T08:54:00.816Z,3.09
2023-03-12T08:54:52.351Z,3.11
2023-03-12T08:55:44.053Z,3.21
2023-03-12T08:56:38.553Z,3.23
2023-03-12T08:57:30.066Z,3.32
2023-03-12T08:58:23.552Z,3.30
2023-03-12T08:59:15.059Z,3.34
2023-03-12T09:00:11.427Z,3.30
2023-03-12T09:01:09.024Z,3.27
2023-03-12T09:02:01.328Z,3.26
2023-03-12T09:02:54.131Z,3.25
2023-03-12T09:03:47.422Z,3.30
2023-03-12T09:04:38.921Z,3.36
2023-03-12T09:05:32.771Z,3.43
2023-03-12T09:06:24.257Z,3.50
2023-03-12T09:07:18.392Z,3.53
2023-03-12T09:08:11.592Z,3.55
2023-03-12T09:09:06.264Z,3.58
2023-03-12T09:09:57.889Z,3.60
2023-03-12T09:10:50.146Z,3.59
2023-03-12T09:11:42.427Z,3.55
2023-03-12T09:12:34.212Z,3.54
2023-03-12T09:13:30.846Z,3.56
2023-03-12T09:15:43.783Z,3.68
2023-03-12T09:16:35.331Z,3.67
2023-03-12T09:17:30.383Z,3.64
2023-03-12T09:18:21.870Z,3.52
2023-03-12T09:19:13.628Z,3.49
2023-03-12T09:20:08.775Z,3.46
2023-03-12T09:21:01.085Z,3.50
2023-03-12T09:21:52.546Z,3.48
2023-03-12T09:22:44.489Z,3.48
2023-03-12T09:23:35.943Z,3.46
2023-03-12T09:24:27.497Z,3.49
2023-03-12T09:25:19.159Z,3.49
2023-03-12T09:26:12.764Z,3.52
2023-03-12T09:27:04.298Z,3.54
2023-03-12T09:27:55.934Z,3.55
2023-03-12T09:28:47.675Z,3.55
2023-03-12T09:29:46.596Z,3.55
2023-03-12T09:30:45.000Z,3.58
2023-03-12T09:31:37.023Z,3.58
2023-03-12T09:32:29.619Z,3.55
2023-03-12T09:33:21.151Z,3.50
2023-03-12T09:34:12.661Z,3.47
2023-03-12T09:35:05.746Z,3.44
2023-03-12T09:35:58.914Z,3.43
2023-03-12T09:36:50.572Z,3.43
2023-03-12T09:37:42.108Z,3.41
2023-03-12T09:38:35.430Z,3.45
2023-03-12T09:39:26.932Z,3.47
2023-03-12T09:40:23.768Z,3.57
2023-03-12T09:41:23.501Z,3.61
2023-03-12T09:42:25.061Z,3.67
2023-03-12T09:43:32.567Z,3.70
2023-03-12T09:44:33.835Z,3.74
2023-03-12T09:45:30.774Z,3.75
2023-03-12T09:46:50.362Z,3.75
2023-03-12T09:47:49.548Z,3.80
2023-03-12T09:48:42.088Z,3.85
2023-03-12T09:49:43.112Z,3.84
2023-03-12T09:50:43.671Z,3.76
2023-03-12T09:51:43.833Z,3.72
2023-03-12T09:52:42.641Z,3.67
2023-03-12T09:53:42.278Z,3.66
2023-03-12T09:54:47.430Z,3.72
2023-03-12T09:55:44.630Z,3.74
2023-03-12T09:56:36.227Z,3.79
2023-03-12T09:57:29.926Z,3.83
2023-03-12T09:58:32.130Z,3.81
2023-03-12T09:59:24.085Z,3.78
2023-03-12T10:00:19.935Z,3.84
2023-03-12T10:01:33.369Z,3.83
2023-03-12T10:02:45.879Z,3.84
2023-03-12T10:04:12.919Z,3.87
2023-03-12T10:05:17.762Z,3.84
2023-03-12T10:06:27.555Z,3.84
2023-03-12T10:07:31.223Z,3.89
2023-03-12T10:08:55.905Z,3.94
2023-03-12T10:09:53.543Z,4.02
2023-03-12T10:10:56.782Z,4.07
2023-03-12T10:12:02.263Z,4.10
2023-03-12T10:13:29.326Z,4.12
2023-03-12T10:14:24.415Z,4.07
2023-03-12T10:15:40.427Z,4.12
2023-03-12T10:17:14.733Z,4.17
2023-03-12T10:18:18.356Z,4.25
2023-03-12T10:19:27.801Z,4.27
2023-03-12T10:20:41.869Z,4.29
2023-03-12T10:21:40.100Z,4.32
2023-03-12T10:22:53.652Z,4.37
2023-03-12T10:24:04.808Z,4.41
2023-03-12T10:25:18.212Z,4.45
2023-03-12T10:26:29.161Z,4.47
2023-03-12T10:27:25.565Z,4.50
2023-03-12T10:28:30.992Z,4.57
2023-03-12T10:29:33.908Z,4.60
2023-03-12T10:30:30.426Z,4.57
2023-03-12T10:31:36.024Z,4.54
2023-03-12T10:32:44.179Z,4.45
2023-03-12T10:33:47.457Z,4.46
2023-03-12T10:34:41.148Z,4.48
2023-03-12T10:35:32.810Z,4.49
2023-03-12T10:36:33.450Z,4.50
2023-03-12T10:37:30.701Z,4.53
2023-03-12T10:38:30.050Z,4.55
2023-03-12T10:39:22.249Z,4.55
2023-03-12T10:40:20.709Z,4.54
2023-03-12T10:41:36.319Z,4.53
2023-03-12T10:42:29.675Z,4.49
2023-03-12T10:43:21.659Z,4.40
2023-03-12T10:44:22.158Z,4.22
2023-03-12T10:45:26.749Z,4.28
2023-03-12T10:46:36.628Z,4.38
2023-03-12T10:47:37.150Z,4.43
2023-03-12T10:48:28.628Z,4.49
2023-03-12T10:49:22.950Z,4.56
2023-03-12T10:50:21.588Z,4.60
2023-03-12T10:51:13.838Z,4.62
2023-03-12T10:52:21.181Z,4.67
2023-03-12T10:53:14.314Z,4.66
2023-03-12T10:54:23.474Z,4.65
2023-03-12T10:55:23.725Z,4.60
2023-03-12T10:56:18.694Z,4.64
2023-03-12T10:57:12.155Z,4.70
2023-03-12T10:58:03.832Z,4.76
2023-03-12T10:58:55.682Z,4.87
2023-03-12T10:59:49.814Z,4.93
2023-03-12T11:00:41.334Z,4.94
2023-03-12T11:01:37.842Z,4.95
2023-03-12T11:02:38.933Z,4.93
2023-03-12T11:03:31.422Z,4.92
2023-03-12T11:04:29.867Z,4.95
2023-03-12T11:05:26.989Z,5.00
2023-03-12T11:06:30.678Z,5.02
2023-03-12T11:07:27.874Z,5.00
2023-03-12T11:08:29.233Z,5.02
2023-03-12T11:09:20.734Z,5.06
2023-03-12T11:10:16.646Z,5.11
2023-03-12T11:11:10.304Z,5.11
2023-03-12T11:12:02.208Z,5.11
2023-03-12T11:13:04.220Z,5.08
2023-03-12T11:14:07.754Z,5.08
2023-03-12T11:14:59.369Z,5.07
2023-03-12T11:15:52.917Z,5.11
2023-03-12T11:16:44.915Z,5.13
2023-03-12T11:17:36.398Z,5.16
2023-03-12T11:18:32.280Z,5.19
2023-03-12T11:19:33.948Z,5.24
2023-03-12T11:20:29.209Z,5.27
2023-03-12T11:21:20.830Z,5.29
2023-03-12T11:22:15.832Z,5.29
2023-03-12T11:23:15.651Z,5.31
2023-03-12T11:24:13.242Z,5.29
2023-03-12T11:25:07.478Z,5.31
2023-03-12T11:26:01.014Z,5.34
2023-03-12T11:27:26.315Z,5.37
2023-03-12T11:28:23.647Z,5.43
2023-03-12T11:29:32.873Z,5.46
2023-03-12T11:30:38.583Z,5.49
2023-03-12T11:31:47.115Z,5.49
2023-03-12T11:32:45.440Z,5.51
2023-03-12T11:33:37.062Z,5.56
2023-03-12T11:34:32.821Z,5.63
2023-03-12T11:35:49.646Z,5.67
2023-03-12T11:37:04.672Z,5.67
2023-03-12T11:38:02.536Z,5.69
2023-03-12T11:39:05.215Z,5.71
2023-03-12T11:40:20.980Z,5.76
2023-03-12T11:41:37.102Z,5.78
2023-03-12T11:42:51.749Z,5.83
2023-03-12T11:44:13.580Z,5.90
2023-03-12T11:45:23.836Z,5.98
2023-03-12T11:46:44.679Z,6.04
2023-03-12T11:47:48.241Z,6.11
2023-03-12T11:48:56.534Z,6.15
2023-03-12T11:49:49.699Z,6.15
2023-03-12T11:50:47.321Z,6.12
2023-03-12T11:52:02.519Z,6.09
2023-03-12T11:53:18.760Z,6.11
2023-03-12T11:54:45.876Z,6.19
2023-03-12T11:55:43.825Z,6.23
2023-03-12T11:56:48.886Z,6.27
2023-03-12T11:58:01.190Z,6.32
2023-03-12T11:59:14.097Z,6.32
2023-03-12T12:00:17.408Z,6.39
2023-03-12T12:01:20.795Z,6.42
2023-03-12T12:02:30.493Z,6.48
2023-03-12T12:03:39.562Z,6.52
2023-03-12T12:05:08.698Z,6.56
2023-03-12T12:06:00.564Z,6.63